Time;durP1;ratioP1;P1;durP2;ratioP2;P2;SDS_P1;SDS_P2;PMS_P1;PMS_P2;Temp;Humidity;BMP_temperature;BMP_pressure;BME280_temperature;BME280_humidity;BME280_pressure;Samples;Min_cycle;Max_cycle;Signal;HPM_P1;HPM_P2
2022/01/10 00:00:19;;;;;;;32.10;13.03;;;;;;;;;;5072495;28;20016;-93
2022/01/10 00:02:45;;;;;;;27.13;13.13;;;;;;;;;;5100568;28;20023;-93
2022/01/10 00:05:10;;;;;;;28.83;12.73;;;;;;;;;;5078006;28;20078;-92
2022/01/10 00:07:36;;;;;;;28.60;13.30;;;;;;;;;;5075711;28;20029;-93
2022/01/10 00:10:02;;;;;;;30.67;12.67;;;;;;;;;;5072117;28;20115;-93
2022/01/10 00:12:28;;;;;;;24.77;11.33;;;;;;;;;;5071832;28;20016;-93
2022/01/10 00:14:53;;;;;;;23.10;11.03;;;;;;;;;;5071458;28;20016;-92
2022/01/10 00:17:18;;;;;;;26.23;11.23;;;;;;;;;;5072033;28;20020;-93
2022/01/10 00:19:44;;;;;;;29.10;12.33;;;;;;;;;;5072679;28;20059;-93
2022/01/10 00:22:11;;;;;;;24.07;12.23;;;;;;;;;;5072772;28;20443;-92
2022/01/10 00:24:36;;;;;;;28.47;12.27;;;;;;;;;;5072859;28;20025;-92
2022/01/10 00:27:01;;;;;;;23.90;13.07;;;;;;;;;;5072576;28;20536;-93
2022/01/10 00:29:26;;;;;;;33.67;12.57;;;;;;;;;;5077371;28;20617;-93
2022/01/10 00:31:52;;;;;;;34.77;13.37;;;;;;;;;;5092982;28;20024;-93
2022/01/10 00:34:17;;;;;;;36.33;13.87;;;;;;;;;;5092882;28;20367;-93
2022/01/10 00:36:42;;;;;;;29.07;11.77;;;;;;;;;;5088417;28;20027;-93
2022/01/10 00:39:07;;;;;;;27.37;11.90;;;;;;;;;;5092772;28;20012;-93
2022/01/10 00:41:33;;;;;;;28.70;12.23;;;;;;;;;;5091373;28;20501;-92
2022/01/10 00:43:58;;;;;;;27.23;10.90;;;;;;;;;;5072570;28;20016;-93
2022/01/10 00:46:23;;;;;;;29.03;12.60;;;;;;;;;;5072768;28;20099;-92
2022/01/10 00:48:49;;;;;;;38.57;13.87;;;;;;;;;;5072516;28;20024;-93
2022/01/10 00:51:14;;;;;;;35.00;13.93;;;;;;;;;;5072516;28;20025;-93
2022/01/10 00:53:39;;;;;;;28.70;11.37;;;;;;;;;;5072363;28;20556;-92
2022/01/10 00:56:08;;;;;;;29.73;12.60;;;;;;;;;;5072255;28;20487;-93
2022/01/10 00:58:33;;;;;;;35.67;12.53;;;;;;;;;;5072368;28;20016;-93
2022/01/10 01:00:58;;;;;;;34.07;12.17;;;;;;;;;;5079270;28;20102;-93
2022/01/10 01:03:24;;;;;;;34.47;12.77;;;;;;;;;;5096252;28;20015;-92
2022/01/10 01:05:49;;;;;;;39.37;13.87;;;;;;;;;;5095986;28;20103;-92
2022/01/10 01:08:14;;;;;;;32.73;12.43;;;;;;;;;;5096076;28;20113;-93
2022/01/10 01:13:24;;;;;;;33.43;11.87;;;;;;;;;;5097268;28;20016;-93
2022/01/10 01:24:00;;;;;;;41.65;13.38;;;;;;;;;;5076848;28;20070;-93
2022/01/10 01:26:26;;;;;;;32.17;12.70;;;;;;;;;;5075273;28;20024;-92
2022/01/10 01:28:51;;;;;;;32.07;12.90;;;;;;;;;;5075455;28;20387;-93
2022/01/10 01:31:16;;;;;;;29.23;11.33;;;;;;;;;;5075351;28;20024;-93
2022/01/10 01:33:42;;;;;;;26.27;11.67;;;;;;;;;;5075188;28;20111;-94
2022/01/10 01:36:07;;;;;;;27.60;10.87;;;;;;;;;;5075137;28;20115;-93
2022/01/10 01:38:33;;;;;;;25.10;11.80;;;;;;;;;;5075217;28;20111;-92
2022/01/10 01:41:12;;;;;;;31.90;12.00;;;;;;;;;;5075250;28;20024;-93
2022/01/10 01:43:38;;;;;;;32.67;13.40;;;;;;;;;;5075184;28;20025;-94
2022/01/10 01:46:03;;;;;;;34.93;12.93;;;;;;;;;;5074965;28;20112;-93
2022/01/10 01:48:28;;;;;;;32.57;13.00;;;;;;;;;;5075125;28;20074;-93
2022/01/10 01:50:53;;;;;;;26.90;11.83;;;;;;;;;;5074816;28;20024;-93
2022/01/10 01:53:19;;;;;;;25.27;11.67;;;;;;;;;;5077628;28;20017;-93
2022/01/10 01:55:45;;;;;;;35.03;12.53;;;;;;;;;;5062555;28;20016;-94
2022/01/10 01:58:10;;;;;;;34.23;12.40;;;;;;;;;;5095115;28;20390;-93
2022/01/10 02:00:35;;;;;;;32.93;12.50;;;;;;;;;;5095279;28;20012;-93
2022/01/10 02:03:01;;;;;;;30.37;13.10;;;;;;;;;;5094947;28;20042;-93
2022/01/10 02:05:26;;;;;;;27.60;12.67;;;;;;;;;;5094807;28;20016;-93
2022/01/10 02:07:51;;;;;;;31.87;12.23;;;;;;;;;;5094831;28;20028;-92
2022/01/10 02:10:17;;;;;;;30.70;13.60;;;;;;;;;;5094761;28;20024;-94
2022/01/10 02:12:42;;;;;;;27.17;12.03;;;;;;;;;;5075523;28;20027;-93
2022/01/10 02:15:07;;;;;;;32.53;12.73;;;;;;;;;;5074695;28;20043;-93
2022/01/10 02:17:38;;;;;;;33.07;12.30;;;;;;;;;;5074337;28;20483;-93
2022/01/10 02:20:05;;;;;;;25.97;11.40;;;;;;;;;;5074385;28;20103;-93
2022/01/10 02:22:30;;;;;;;28.70;11.70;;;;;;;;;;5074295;28;20020;-93
2022/01/10 02:24:55;;;;;;;29.53;10.77;;;;;;;;;;5074229;28;20039;-94
2022/01/10 02:27:22;;;;;;;27.63;11.57;;;;;;;;;;5074211;28;20081;-93
2022/01/10 02:29:47;;;;;;;30.17;11.30;;;;;;;;;;5074327;28;20032;-93
2022/01/10 02:32:12;;;;;;;31.27;12.40;;;;;;;;;;5075124;28;20016;-93
2022/01/10 02:34:37;;;;;;;29.97;12.07;;;;;;;;;;5073909;28;20056;-93
2022/01/10 02:37:03;;;;;;;28.93;12.53;;;;;;;;;;5073962;28;20387;-93
2022/01/10 02:39:28;;;;;;;32.73;13.07;;;;;;;;;;5073859;28;20020;-92
2022/01/10 02:41:53;;;;;;;36.30;13.37;;;;;;;;;;5073837;28;20047;-93
2022/01/10 02:44:18;;;;;;;43.73;14.27;;;;;;;;;;5073754;28;20017;-92
2022/01/10 02:46:45;;;;;;;33.03;12.40;;;;;;;;;;5073703;28;20046;-93
2022/01/10 02:49:11;;;;;;;27.47;11.67;;;;;;;;;;5073800;28;20497;-93
2022/01/10 02:51:37;;;;;;;28.10;11.40;;;;;;;;;;5091083;28;20081;-93
2022/01/10 02:54:02;;;;;;;30.70;11.57;;;;;;;;;;5095085;28;20012;-93
2022/01/10 02:56:27;;;;;;;26.10;11.23;;;;;;;;;;5093887;28;20092;-93
2022/01/10 02:58:52;;;;;;;34.07;12.50;;;;;;;;;;5093861;28;20430;-93
2022/01/10 03:01:18;;;;;;;29.37;12.47;;;;;;;;;;5093909;28;20016;-93
2022/01/10 03:03:43;;;;;;;30.40;12.33;;;;;;;;;;5093949;28;20387;-93
2022/01/10 03:06:08;;;;;;;26.33;11.67;;;;;;;;;;5093385;28;20020;-93
2022/01/10 03:08:34;;;;;;;27.83;11.43;;;;;;;;;;5093704;28;20103;-94
2022/01/10 03:10:59;;;;;;;34.83;13.87;;;;;;;;;;5083538;28;20062;-93
2022/01/10 03:13:24;;;;;;;35.70;13.50;;;;;;;;;;5093653;28;20034;-93
2022/01/10 03:15:50;;;;;;;36.03;14.97;;;;;;;;;;5093770;28;20019;-94
2022/01/10 03:18:15;;;;;;;34.80;15.33;;;;;;;;;;5092398;28;20368;-93
2022/01/10 03:20:40;;;;;;;34.47;14.83;;;;;;;;;;5093630;28;20069;-93
2022/01/10 03:23:05;;;;;;;30.43;13.13;;;;;;;;;;5092950;28;20012;-93
2022/01/10 03:25:31;;;;;;;39.07;13.53;;;;;;;;;;5094447;28;20512;-93
2022/01/10 03:27:56;;;;;;;34.63;13.50;;;;;;;;;;5093441;28;20085;-93
2022/01/10 03:30:21;;;;;;;33.87;13.40;;;;;;;;;;5093501;28;20020;-93
2022/01/10 03:32:48;;;;;;;32.77;12.67;;;;;;;;;;5093248;28;20024;-93
2022/01/10 03:35:14;;;;;;;34.53;13.43;;;;;;;;;;5093031;28;20056;-93
2022/01/10 03:37:39;;;;;;;33.20;12.67;;;;;;;;;;5093196;28;20467;-93
2022/01/10 03:40:05;;;;;;;32.47;11.80;;;;;;;;;;5082949;28;20377;-93
2022/01/10 03:42:30;;;;;;;24.70;11.43;;;;;;;;;;5073094;28;20013;-93
2022/01/10 03:44:55;;;;;;;30.77;12.23;;;;;;;;;;5073026;28;20023;-93
2022/01/10 03:47:21;;;;;;;28.73;11.73;;;;;;;;;;5072968;28;20039;-93
2022/01/10 03:49:47;;;;;;;29.40;12.00;;;;;;;;;;5072927;28;20035;-94
2022/01/10 03:52:12;;;;;;;28.27;11.83;;;;;;;;;;5072898;28;20020;-92
2022/01/10 03:54:37;;;;;;;29.87;13.07;;;;;;;;;;5073020;28;20070;-93
2022/01/10 03:57:03;;;;;;;29.33;12.67;;;;;;;;;;5072872;28;20032;-93
2022/01/10 03:59:28;;;;;;;27.33;11.80;;;;;;;;;;5073144;28;20044;-93
2022/01/10 04:01:53;;;;;;;25.13;10.60;;;;;;;;;;5072698;28;20471;-93
2022/01/10 04:04:19;;;;;;;24.67;11.27;;;;;;;;;;5072855;28;20024;-93
2022/01/10 04:06:45;;;;;;;24.60;11.37;;;;;;;;;;5072998;28;20020;-93
2022/01/10 04:09:10;;;;;;;26.63;11.50;;;;;;;;;;5072777;28;20479;-93
2022/01/10 04:11:36;;;;;;;27.37;11.50;;;;;;;;;;5072771;28;20028;-93
2022/01/10 04:14:01;;;;;;;30.63;12.90;;;;;;;;;;5072733;28;20115;-93
2022/01/10 04:16:26;;;;;;;27.73;10.60;;;;;;;;;;5072698;28;20086;-93
2022/01/10 04:18:52;;;;;;;26.40;10.70;;;;;;;;;;5072657;28;20059;-93
2022/01/10 04:21:17;;;;;;;30.53;10.13;;;;;;;;;;5072798;28;20047;-93
2022/01/10 04:23:42;;;;;;;26.80;10.03;;;;;;;;;;5072921;28;20019;-94
2022/01/10 04:26:07;;;;;;;25.93;10.53;;;;;;;;;;5072751;28;20017;-93
2022/01/10 04:28:33;;;;;;;24.13;9.73;;;;;;;;;;5072469;28;20023;-94
2022/01/10 04:30:58;;;;;;;27.83;11.07;;;;;;;;;;5072553;28;20032;-93
2022/01/10 04:33:28;;;;;;;25.40;11.13;;;;;;;;;;5072703;28;20590;-93
2022/01/10 04:35:54;;;;;;;25.20;11.10;;;;;;;;;;5074663;28;20024;-92
2022/01/10 04:38:19;;;;;;;25.60;11.50;;;;;;;;;;5076307;28;20491;-93
2022/01/10 04:40:44;;;;;;;21.83;10.57;;;;;;;;;;5076438;28;20384;-93
2022/01/10 04:43:10;;;;;;;22.37;10.23;;;;;;;;;;5076240;28;20020;-93
2022/01/10 04:45:35;;;;;;;23.53;9.80;;;;;;;;;;5076296;28;20541;-93
2022/01/10 04:48:00;;;;;;;21.33;10.27;;;;;;;;;;5076239;28;20012;-93
2022/01/10 04:50:53;;;;;;;19.13;10.10;;;;;;;;;;5076210;28;20013;-94
2022/01/10 04:53:13;;;;;;;20.43;9.80;;;;;;;;;;5077169;28;20020;-94
2022/01/10 04:55:38;;;;;;;18.33;9.77;;;;;;;;;;5075804;28;20024;-93
2022/01/10 04:58:04;;;;;;;16.23;9.70;;;;;;;;;;5075802;28;20380;-93
2022/01/10 05:00:29;;;;;;;21.70;9.17;;;;;;;;;;5075931;28;20020;-94
2022/01/10 05:02:54;;;;;;;16.80;8.90;;;;;;;;;;5075958;28;20031;-93
2022/01/10 05:05:19;;;;;;;15.57;7.97;;;;;;;;;;5076062;28;20021;-94
2022/01/10 05:07:45;;;;;;;17.33;8.07;;;;;;;;;;5075937;28;20021;-93
2022/01/10 05:10:10;;;;;;;17.37;8.73;;;;;;;;;;5075660;28;20020;-94
2022/01/10 05:12:35;;;;;;;17.23;8.77;;;;;;;;;;5076844;28;20028;-94
2022/01/10 05:15:01;;;;;;;14.17;7.83;;;;;;;;;;5075772;28;20032;-93
2022/01/10 05:17:26;;;;;;;16.27;8.47;;;;;;;;;;5075556;28;20016;-94
2022/01/10 05:19:51;;;;;;;20.73;8.97;;;;;;;;;;5075665;28;20032;-94
2022/01/10 05:22:17;;;;;;;16.50;8.23;;;;;;;;;;5075861;28;20060;-94
2022/01/10 05:24:42;;;;;;;16.70;8.53;;;;;;;;;;5075510;28;20111;-93
2022/01/10 05:27:07;;;;;;;19.30;9.40;;;;;;;;;;5075550;28;20071;-93
2022/01/10 05:29:32;;;;;;;16.80;8.83;;;;;;;;;;5075636;28;20028;-94
2022/01/10 05:31:58;;;;;;;20.27;8.83;;;;;;;;;;5075372;28;20023;-94
2022/01/10 05:34:23;;;;;;;18.07;8.50;;;;;;;;;;5075334;28;20065;-94
2022/01/10 05:36:49;;;;;;;16.17;8.50;;;;;;;;;;5075215;28;20372;-94
2022/01/10 05:39:14;;;;;;;14.97;7.67;;;;;;;;;;5075309;28;20464;-93
2022/01/10 05:41:39;;;;;;;16.83;8.63;;;;;;;;;;5075388;28;20016;-94
2022/01/10 05:44:05;;;;;;;15.50;8.50;;;;;;;;;;5076353;28;20070;-93
2022/01/10 05:46:30;;;;;;;16.37;8.13;;;;;;;;;;5074843;28;20021;-93
2022/01/10 05:49:00;;;;;;;16.30;8.00;;;;;;;;;;5075241;28;20021;-94
2022/01/10 05:51:29;;;;;;;15.20;7.57;;;;;;;;;;5075197;28;20024;-94
2022/01/10 05:53:54;;;;;;;14.87;7.60;;;;;;;;;;5075112;28;20020;-94
2022/01/10 05:56:19;;;;;;;17.00;8.37;;;;;;;;;;5075101;28;20101;-94
2022/01/10 05:58:44;;;;;;;17.57;8.60;;;;;;;;;;5074717;28;20040;-94
2022/01/10 06:01:10;;;;;;;15.00;7.40;;;;;;;;;;5075094;28;20529;-94
2022/01/10 06:03:35;;;;;;;15.90;8.47;;;;;;;;;;5093221;28;20020;-94
2022/01/10 06:06:00;;;;;;;18.87;9.83;;;;;;;;;;5095047;28;20012;-93
2022/01/10 06:08:26;;;;;;;16.40;8.00;;;;;;;;;;5095011;28;20016;-94
2022/01/10 06:10:51;;;;;;;18.47;8.67;;;;;;;;;;5094964;28;20016;-93
2022/01/10 06:13:17;;;;;;;17.63;8.63;;;;;;;;;;5085952;28;20112;-94
2022/01/10 06:15:42;;;;;;;19.10;9.10;;;;;;;;;;5074574;28;20526;-93
2022/01/10 06:18:07;;;;;;;19.43;8.87;;;;;;;;;;5074599;28;20069;-94
2022/01/10 06:20:33;;;;;;;18.93;8.67;;;;;;;;;;5074609;28;20379;-94
2022/01/10 06:22:58;;;;;;;16.23;8.17;;;;;;;;;;5074329;28;20021;-94
2022/01/10 06:25:24;;;;;;;15.43;7.70;;;;;;;;;;5074460;28;20452;-94
2022/01/10 06:27:49;;;;;;;17.23;8.70;;;;;;;;;;5074345;28;20016;-93
2022/01/10 06:30:15;;;;;;;19.63;9.33;;;;;;;;;;5074397;28;20123;-93
2022/01/10 06:32:40;;;;;;;17.20;8.87;;;;;;;;;;5074381;28;20392;-94
2022/01/10 06:35:05;;;;;;;18.43;8.90;;;;;;;;;;5074226;28;20487;-94
2022/01/10 06:37:31;;;;;;;17.50;9.13;;;;;;;;;;5074225;28;20020;-93
2022/01/10 06:39:56;;;;;;;18.47;8.87;;;;;;;;;;5074185;28;20017;-94
2022/01/10 06:42:21;;;;;;;16.00;8.03;;;;;;;;;;5074149;28;20539;-94
2022/01/10 06:44:46;;;;;;;15.73;8.13;;;;;;;;;;5073986;28;20021;-94
2022/01/10 06:47:12;;;;;;;16.23;8.23;;;;;;;;;;5074056;28;20020;-94
2022/01/10 06:49:37;;;;;;;17.00;8.43;;;;;;;;;;5073968;28;20471;-94
2022/01/10 06:52:03;;;;;;;15.00;7.47;;;;;;;;;;5073813;28;20468;-94
2022/01/10 06:54:28;;;;;;;18.17;8.07;;;;;;;;;;5074068;28;20078;-94
2022/01/10 06:56:54;;;;;;;15.27;7.70;;;;;;;;;;5073528;28;20396;-94
2022/01/10 06:59:19;;;;;;;20.07;8.70;;;;;;;;;;5078419;28;20017;-94
2022/01/10 07:01:47;;;;;;;18.63;8.50;;;;;;;;;;5074105;28;20016;-94
2022/01/10 07:04:13;;;;;;;15.53;7.67;;;;;;;;;;5071646;28;20016;-94
2022/01/10 07:06:41;;;;;;;16.10;8.27;;;;;;;;;;5069906;28;20024;-93
2022/01/10 07:09:06;;;;;;;22.07;9.90;;;;;;;;;;5068499;28;20483;-93
2022/01/10 07:11:31;;;;;;;19.47;9.00;;;;;;;;;;5085252;28;20020;-94
2022/01/10 07:13:56;;;;;;;19.90;7.93;;;;;;;;;;5074740;28;20016;-94
2022/01/10 07:16:22;;;;;;;14.80;7.10;;;;;;;;;;5063411;28;20052;-94
2022/01/10 07:18:47;;;;;;;13.60;7.07;;;;;;;;;;5063961;28;20060;-93
2022/01/10 07:24:25;;;;;;;17.30;8.07;;;;;;;;;;5053318;28;20086;-93
2022/01/10 07:26:51;;;;;;;17.23;7.53;;;;;;;;;;5053238;28;20032;-92
2022/01/10 07:29:16;;;;;;;13.73;7.17;;;;;;;;;;5058332;28;20795;-93
2022/01/10 07:31:41;;;;;;;16.73;8.00;;;;;;;;;;5085380;28;20461;-93
2022/01/10 07:34:07;;;;;;;12.60;7.23;;;;;;;;;;5073360;28;20423;-91
2022/01/10 07:36:32;;;;;;;13.73;7.60;;;;;;;;;;5090014;28;20031;-94
2022/01/10 07:38:58;;;;;;;12.37;6.57;;;;;;;;;;5074592;28;20017;-94
2022/01/10 07:41:23;;;;;;;12.27;6.77;;;;;;;;;;5091014;28;20073;-94
2022/01/10 07:43:48;;;;;;;41.37;8.17;;;;;;;;;;5073151;28;20108;-93
2022/01/10 07:46:14;;;;;;;16.83;7.87;;;;;;;;;;5073303;28;20024;-94
2022/01/10 07:48:40;;;;;;;15.33;7.10;;;;;;;;;;5078974;28;20468;-93
2022/01/10 07:51:09;;;;;;;15.07;7.27;;;;;;;;;;5080487;28;20139;-93
2022/01/10 07:53:34;;;;;;;12.93;7.37;;;;;;;;;;5072877;28;20031;-93
2022/01/10 07:55:59;;;;;;;15.67;7.63;;;;;;;;;;5087309;28;20115;-93
2022/01/10 07:58:25;;;;;;;13.57;7.23;;;;;;;;;;5085578;28;20031;-92
2022/01/10 08:00:50;;;;;;;16.37;6.57;;;;;;;;;;5092961;28;20023;-92
2022/01/10 08:03:15;;;;;;;13.53;6.70;;;;;;;;;;5084723;28;20020;-92
2022/01/10 08:05:40;;;;;;;13.93;7.10;;;;;;;;;;5073014;28;20078;-92
2022/01/10 08:08:05;;;;;;;12.17;5.77;;;;;;;;;;5079967;28;20099;-93
2022/01/10 08:10:31;;;;;;;14.70;7.13;;;;;;;;;;5083945;28;20028;-94
2022/01/10 08:12:56;;;;;;;14.00;6.70;;;;;;;;;;5077033;28;20063;-92
2022/01/10 08:15:21;;;;;;;14.80;7.17;;;;;;;;;;5076795;28;20444;-93
2022/01/10 08:17:47;;;;;;;13.33;7.33;;;;;;;;;;5090635;28;20028;-92
2022/01/10 08:20:12;;;;;;;15.00;7.43;;;;;;;;;;5082531;28;20486;-93
2022/01/10 08:22:37;;;;;;;14.40;7.00;;;;;;;;;;5089928;28;20091;-92
2022/01/10 08:25:03;;;;;;;13.03;6.47;;;;;;;;;;5093523;28;20074;-93
2022/01/10 08:27:28;;;;;;;14.63;6.93;;;;;;;;;;5076680;28;20025;-92
2022/01/10 08:29:53;;;;;;;14.07;6.67;;;;;;;;;;5078802;28;20404;-91
2022/01/10 08:32:19;;;;;;;15.23;7.23;;;;;;;;;;5075870;28;20384;-92
2022/01/10 08:34:44;;;;;;;15.40;7.07;;;;;;;;;;5093086;28;20384;-92
2022/01/10 08:37:09;;;;;;;17.97;7.07;;;;;;;;;;5075833;28;20119;-91
2022/01/10 08:39:34;;;;;;;15.57;6.57;;;;;;;;;;5086041;28;20048;-91
2022/01/10 08:42:00;;;;;;;15.77;7.27;;;;;;;;;;5096649;28;20119;-92
2022/01/10 08:44:25;;;;;;;16.87;7.70;;;;;;;;;;5081820;28;20017;-91
2022/01/10 08:46:51;;;;;;;16.97;7.33;;;;;;;;;;5093097;28;20511;-92
2022/01/10 08:49:16;;;;;;;23.60;7.07;;;;;;;;;;5092951;28;20028;-92
2022/01/10 08:51:42;;;;;;;16.37;6.80;;;;;;;;;;5096356;28;20074;-93
2022/01/10 08:54:07;;;;;;;12.93;6.50;;;;;;;;;;5078343;28;20395;-92
2022/01/10 08:56:32;;;;;;;16.20;6.73;;;;;;;;;;5082051;28;20035;-92
2022/01/10 08:58:58;;;;;;;14.27;7.37;;;;;;;;;;5076002;28;20020;-93
2022/01/10 09:01:24;;;;;;;15.70;7.00;;;;;;;;;;5095965;28;20020;-93
2022/01/10 09:03:49;;;;;;;15.23;7.33;;;;;;;;;;5092004;28;20073;-92
2022/01/10 09:06:14;;;;;;;14.90;7.10;;;;;;;;;;5076499;28;20020;-92
2022/01/10 09:08:40;;;;;;;14.00;7.10;;;;;;;;;;5077925;28;20519;-92
2022/01/10 09:11:05;;;;;;;14.63;6.27;;;;;;;;;;5095508;28;20502;-91
2022/01/10 09:13:31;;;;;;;16.17;6.90;;;;;;;;;;5092327;28;20444;-92
2022/01/10 09:15:57;;;;;;;14.67;6.47;;;;;;;;;;5084416;28;20024;-93
2022/01/10 09:18:22;;;;;;;17.67;7.20;;;;;;;;;;5083654;28;20440;-92
2022/01/10 09:20:47;;;;;;;16.03;7.43;;;;;;;;;;5091241;28;20024;-91
2022/01/10 09:23:13;;;;;;;20.30;8.23;;;;;;;;;;5077904;28;20021;-92
2022/01/10 09:25:38;;;;;;;17.90;7.57;;;;;;;;;;5090334;28;20016;-92
2022/01/10 09:28:04;;;;;;;13.50;6.47;;;;;;;;;;5077559;28;20029;-90
2022/01/10 09:30:29;;;;;;;16.47;7.80;;;;;;;;;;5065587;28;20035;-90
2022/01/10 09:32:54;;;;;;;20.60;7.07;;;;;;;;;;5074422;28;20055;-89
2022/01/10 09:35:20;;;;;;;14.07;6.20;;;;;;;;;;5075189;28;20113;-92
2022/01/10 09:37:45;;;;;;;11.00;4.93;;;;;;;;;;5074283;28;20036;-92
2022/01/10 09:40:11;;;;;;;11.20;5.67;;;;;;;;;;5080816;28;20485;-93
2022/01/10 09:42:36;;;;;;;10.00;5.23;;;;;;;;;;5087641;28;20019;-92
2022/01/10 09:45:03;;;;;;;9.20;4.60;;;;;;;;;;5084184;28;20482;-93
2022/01/10 09:47:28;;;;;;;9.87;5.17;;;;;;;;;;5084498;28;20039;-94
2022/01/10 09:49:53;;;;;;;11.53;5.83;;;;;;;;;;5090892;28;20119;-93
2022/01/10 09:52:18;;;;;;;13.20;6.40;;;;;;;;;;5091537;28;20028;-92
2022/01/10 09:54:43;;;;;;;15.40;6.10;;;;;;;;;;5078602;28;20517;-91
2022/01/10 09:57:09;;;;;;;12.10;5.57;;;;;;;;;;5088441;28;20033;-93
2022/01/10 09:59:34;;;;;;;10.37;5.73;;;;;;;;;;5079408;28;20066;-92
2022/01/10 10:01:59;;;;;;;12.60;6.73;;;;;;;;;;5074877;28;20020;-91
2022/01/10 10:04:25;;;;;;;13.50;6.20;;;;;;;;;;5094295;28;20380;-90
2022/01/10 10:06:50;;;;;;;12.83;6.37;;;;;;;;;;5081389;28;20020;-90
2022/01/10 10:09:16;;;;;;;14.70;6.47;;;;;;;;;;5071493;28;20872;-90
2022/01/10 10:11:49;;;;;;;16.60;7.27;;;;;;;;;;5083965;28;20039;-90
2022/01/10 10:14:20;;;;;;;20.13;7.50;;;;;;;;;;5073212;28;20029;-91
2022/01/10 10:16:53;;;;;;;17.60;8.07;;;;;;;;;;5070454;28;20112;-91
2022/01/10 10:19:23;;;;;;;28.00;8.20;;;;;;;;;;5072107;28;20017;-90
2022/01/10 10:21:49;;;;;;;23.13;8.23;;;;;;;;;;5073233;28;20388;-91
2022/01/10 10:24:14;;;;;;;27.53;8.90;;;;;;;;;;5096815;28;20016;-90
2022/01/10 10:26:40;;;;;;;14.87;7.00;;;;;;;;;;5072921;28;20444;-90
2022/01/10 10:29:05;;;;;;;16.33;7.33;;;;;;;;;;5074938;28;20029;-91
2022/01/10 10:31:32;;;;;;;18.67;8.00;;;;;;;;;;5074131;28;20028;-90
2022/01/10 10:34:00;;;;;;;17.77;8.50;;;;;;;;;;5080823;28;20456;-90
2022/01/10 10:36:26;;;;;;;13.37;6.13;;;;;;;;;;5074428;28;20032;-91
2022/01/10 10:38:52;;;;;;;21.40;7.87;;;;;;;;;;5078589;28;20028;-91
2022/01/10 10:41:17;;;;;;;16.27;7.57;;;;;;;;;;5073115;28;20111;-92
2022/01/10 10:43:43;;;;;;;16.87;8.17;;;;;;;;;;5073385;28;20052;-92
2022/01/10 10:46:13;;;;;;;30.50;8.17;;;;;;;;;;5085247;28;20028;-92
2022/01/10 10:48:44;;;;;;;20.43;8.20;;;;;;;;;;5074783;28;20021;-91
2022/01/10 10:51:10;;;;;;;16.33;8.00;;;;;;;;;;5085600;28;20013;-91
2022/01/10 10:53:35;;;;;;;21.17;8.10;;;;;;;;;;5090490;28;20020;-92
2022/01/10 10:56:02;;;;;;;15.07;7.13;;;;;;;;;;5064021;28;20262;-91
2022/01/10 10:58:27;;;;;;;15.63;6.93;;;;;;;;;;5074664;28;20143;-91
2022/01/10 11:00:53;;;;;;;16.37;7.53;;;;;;;;;;5068800;28;20476;-91
2022/01/10 11:03:19;;;;;;;26.93;8.07;;;;;;;;;;5071216;28;20021;-90
2022/01/10 11:05:46;;;;;;;15.80;7.27;;;;;;;;;;5085739;28;20023;-92
2022/01/10 11:08:11;;;;;;;14.67;7.37;;;;;;;;;;5072805;28;20017;-92
2022/01/10 11:10:37;;;;;;;13.30;6.43;;;;;;;;;;5074102;28;20017;-92
2022/01/10 11:13:03;;;;;;;13.33;6.03;;;;;;;;;;5074578;28;20024;-92
2022/01/10 11:15:30;;;;;;;16.33;7.47;;;;;;;;;;5074305;28;20027;-92
2022/01/10 11:17:59;;;;;;;16.40;7.63;;;;;;;;;;5072539;28;20029;-92
2022/01/10 11:20:25;;;;;;;21.47;8.37;;;;;;;;;;5089557;28;20123;-90
2022/01/10 11:22:54;;;;;;;16.27;7.27;;;;;;;;;;5095496;28;20480;-90
2022/01/10 11:25:21;;;;;;;19.77;8.53;;;;;;;;;;5094199;28;20020;-90
2022/01/10 11:27:47;;;;;;;19.33;8.40;;;;;;;;;;5090594;28;20036;-90
2022/01/10 11:30:18;;;;;;;23.27;8.13;;;;;;;;;;5073618;28;20025;-91
2022/01/10 11:32:54;;;;;;;15.43;7.90;;;;;;;;;;5073418;28;20016;-91
2022/01/10 11:35:19;;;;;;;17.23;7.10;;;;;;;;;;5094341;28;20024;-91
2022/01/10 11:37:45;;;;;;;16.37;6.80;;;;;;;;;;5089851;28;20020;-90
2022/01/10 11:40:11;;;;;;;32.33;8.03;;;;;;;;;;5088213;28;20052;-89
2022/01/10 11:42:46;;;;;;;19.93;8.23;;;;;;;;;;5087890;28;20017;-89
2022/01/10 11:45:12;;;;;;;20.47;8.40;;;;;;;;;;5069861;28;20039;-89
2022/01/10 11:47:56;;;;;;;18.23;8.17;;;;;;;;;;5072008;28;20020;-90
2022/01/10 11:50:31;;;;;;;17.57;7.50;;;;;;;;;;5071279;28;20029;-89
2022/01/10 11:53:00;;;;;;;17.30;7.40;;;;;;;;;;5073849;28;20093;-89
2022/01/10 11:55:50;;;;;;;16.33;7.40;;;;;;;;;;5087560;28;20464;-90
2022/01/10 11:58:22;;;;;;;14.37;6.73;;;;;;;;;;5092937;28;20361;-90
2022/01/10 12:00:50;;;;;;;13.48;6.00;;;;;;;;;;5073314;28;20020;-90
2022/01/10 12:03:15;;;;;;;11.27;6.07;;;;;;;;;;5071073;28;20021;-93
2022/01/10 12:05:41;;;;;;;37.53;7.93;;;;;;;;;;5075227;28;20111;-91
2022/01/10 12:08:06;;;;;;;18.67;7.53;;;;;;;;;;5069881;28;20025;-91
2022/01/10 12:10:32;;;;;;;33.73;8.13;;;;;;;;;;5072218;28;20131;-89
2022/01/10 12:13:03;;;;;;;15.30;7.33;;;;;;;;;;5084267;28;20025;-94
2022/01/10 12:15:32;;;;;;;13.00;5.90;;;;;;;;;;5072821;28;20054;-92
2022/01/10 12:17:58;;;;;;;12.60;6.50;;;;;;;;;;5072744;28;20035;-92
2022/01/10 12:20:23;;;;;;;15.00;6.13;;;;;;;;;;5069625;28;20025;-90
2022/01/10 12:22:51;;;;;;;40.70;7.97;;;;;;;;;;5072435;28;20028;-90
2022/01/10 12:25:16;;;;;;;15.67;6.80;;;;;;;;;;5068913;28;20557;-89
2022/01/10 12:27:42;;;;;;;31.00;7.50;;;;;;;;;;5073936;28;20024;-90
2022/01/10 12:30:08;;;;;;;12.10;6.00;;;;;;;;;;5078316;28;20020;-93
2022/01/10 12:32:33;;;;;;;18.63;8.13;;;;;;;;;;5072663;28;20016;-91
2022/01/10 12:34:59;;;;;;;15.73;7.37;;;;;;;;;;5068125;28;20027;-91
2022/01/10 12:37:24;;;;;;;15.13;6.27;;;;;;;;;;5068789;28;20431;-93
2022/01/10 12:39:49;;;;;;;12.97;6.30;;;;;;;;;;5069560;28;20016;-86
2022/01/10 12:42:14;;;;;;;22.83;7.77;;;;;;;;;;5071880;28;20488;-91
2022/01/10 12:44:40;;;;;;;25.17;7.87;;;;;;;;;;5072110;28;20369;-91
2022/01/10 12:47:05;;;;;;;14.03;6.77;;;;;;;;;;5072467;28;20035;-90
2022/01/10 12:49:30;;;;;;;20.67;7.20;;;;;;;;;;5073068;28;20020;-91
2022/01/10 12:51:56;;;;;;;12.87;7.17;;;;;;;;;;5072632;28;20024;-91
2022/01/10 12:54:23;;;;;;;13.60;6.87;;;;;;;;;;5072504;28;20029;-91
2022/01/10 12:56:49;;;;;;;15.50;7.27;;;;;;;;;;5081232;28;20024;-92
2022/01/10 12:59:25;;;;;;;11.73;5.93;;;;;;;;;;5083640;28;20483;-91
2022/01/10 13:01:52;;;;;;;30.00;7.23;;;;;;;;;;5071925;28;20142;-90
2022/01/10 13:04:21;;;;;;;15.10;6.80;;;;;;;;;;5073999;28;20668;-89
2022/01/10 13:06:48;;;;;;;13.40;7.33;;;;;;;;;;5079508;28;20020;-90
2022/01/10 13:09:14;;;;;;;14.30;7.50;;;;;;;;;;5082297;28;20089;-89
2022/01/10 13:11:44;;;;;;;14.10;7.00;;;;;;;;;;5083077;28;20031;-89
2022/01/10 13:14:11;;;;;;;15.37;7.23;;;;;;;;;;5080905;28;20028;-90
2022/01/10 13:16:37;;;;;;;11.47;6.30;;;;;;;;;;5094197;28;20020;-90
2022/01/10 13:19:02;;;;;;;20.73;8.33;;;;;;;;;;5092940;28;20030;-90
2022/01/10 13:21:53;;;;;;;25.23;7.67;;;;;;;;;;5091759;28;20046;-89
2022/01/10 13:24:20;;;;;;;31.80;9.43;;;;;;;;;;5105371;28;20012;-88
2022/01/10 13:27:01;;;;;;;34.63;8.60;;;;;;;;;;5082470;28;20027;-90
2022/01/10 13:29:38;;;;;;;43.67;7.67;;;;;;;;;;5079841;28;20152;-89
2022/01/10 13:32:17;;;;;;;24.37;7.83;;;;;;;;;;5084837;28;20020;-90
2022/01/10 13:34:43;;;;;;;20.80;8.03;;;;;;;;;;5092945;28;20525;-89
2022/01/10 13:37:09;;;;;;;18.87;9.30;;;;;;;;;;5079044;28;20016;-89
2022/01/10 13:39:34;;;;;;;40.03;8.20;;;;;;;;;;5061266;28;20067;-90
2022/01/10 13:42:00;;;;;;;25.60;8.97;;;;;;;;;;5074752;28;20423;-90
2022/01/10 13:44:26;;;;;;;14.63;7.40;;;;;;;;;;5074395;28;20020;-90
2022/01/10 13:47:07;;;;;;;14.63;6.93;;;;;;;;;;5086398;28;20024;-91
2022/01/10 13:49:33;;;;;;;19.53;6.83;;;;;;;;;;5092186;28;20475;-91
2022/01/10 13:52:08;;;;;;;11.73;6.33;;;;;;;;;;5076184;28;20074;-91
2022/01/10 13:54:33;;;;;;;13.77;7.13;;;;;;;;;;5075472;28;20028;-89
2022/01/10 13:57:13;;;;;;;14.37;7.13;;;;;;;;;;5073771;28;20016;-90
2022/01/10 13:59:38;;;;;;;15.60;7.03;;;;;;;;;;5081219;28;20077;-90
2022/01/10 14:02:03;;;;;;;20.60;7.27;;;;;;;;;;5077483;28;20021;-90
2022/01/10 14:04:34;;;;;;;14.07;7.20;;;;;;;;;;5101317;28;20024;-90
2022/01/10 14:07:00;;;;;;;13.63;6.80;;;;;;;;;;5079050;28;20020;-89
2022/01/10 14:09:29;;;;;;;13.23;6.63;;;;;;;;;;5078836;28;20029;-90
2022/01/10 14:11:54;;;;;;;13.47;7.03;;;;;;;;;;5086366;28;20077;-90
2022/01/10 14:14:19;;;;;;;12.53;7.27;;;;;;;;;;5072422;28;20102;-91
2022/01/10 14:16:49;;;;;;;10.70;6.20;;;;;;;;;;5073783;28;20376;-91
2022/01/10 14:19:16;;;;;;;13.17;7.00;;;;;;;;;;5070555;28;20020;-91
2022/01/10 14:21:42;;;;;;;15.53;6.87;;;;;;;;;;5053849;28;20115;-90
2022/01/10 14:24:07;;;;;;;13.13;6.90;;;;;;;;;;5072597;28;20048;-90
2022/01/10 14:26:33;;;;;;;11.97;6.43;;;;;;;;;;5074350;28;20023;-90
2022/01/10 14:29:01;;;;;;;13.50;6.47;;;;;;;;;;5073161;28;20490;-90
2022/01/10 14:31:27;;;;;;;15.80;7.27;;;;;;;;;;5091056;28;20099;-90
2022/01/10 14:33:52;;;;;;;17.53;6.30;;;;;;;;;;5074237;28;20486;-89